createdAt,value
2022-11-13T00:02:49.122Z,39.20
2022-11-13T00:06:53.634Z,60.00
2022-11-13T00:11:01.858Z,62.73
2022-11-13T00:15:03.405Z,46.70
2022-11-13T00:19:04.407Z,44.57
2022-11-13T00:23:05.392Z,44.67
2022-11-13T00:27:06.624Z,42.27
2022-11-13T00:31:08.891Z,46.33
2022-11-13T00:35:09.789Z,47.00
2022-11-13T00:39:10.803Z,45.87
2022-11-13T00:43:11.901Z,28.77
2022-11-13T00:47:13.069Z,28.90
2022-11-13T00:51:14.349Z,29.00
2022-11-13T00:55:15.514Z,28.57
2022-11-13T00:59:16.474Z,34.87
2022-11-13T01:03:17.764Z,38.73
2022-11-13T01:07:18.813Z,37.00
2022-11-13T01:11:22.749Z,28.30
2022-11-13T01:15:24.060Z,21.93
2022-11-13T01:19:25.253Z,20.97
2022-11-13T01:23:26.418Z,20.17
2022-11-13T01:27:27.516Z,21.87
2022-11-13T01:31:30.626Z,29.03
2022-11-13T01:35:31.620Z,30.07
2022-11-13T01:39:32.767Z,31.50
2022-11-13T01:43:36.472Z,48.40
2022-11-13T01:47:37.762Z,50.67
2022-11-13T01:51:42.216Z,42.40
2022-11-13T01:55:43.406Z,37.13
2022-11-13T01:59:48.381Z,28.43
2022-11-13T02:03:49.555Z,26.47
2022-11-13T02:07:50.981Z,27.93
2022-11-13T02:11:53.404Z,35.60
2022-11-13T02:15:55.371Z,33.40
2022-11-13T02:19:59.780Z,30.17
2022-11-13T02:24:17.535Z,30.37
2022-11-13T02:28:18.699Z,33.13
2022-11-13T02:32:19.955Z,38.37
2022-11-13T02:36:24.404Z,31.93
2022-11-13T02:40:26.314Z,26.50
2022-11-13T02:44:27.484Z,24.83
2022-11-13T02:48:29.094Z,22.53
2022-11-13T02:52:30.775Z,19.23
2022-11-13T02:56:31.914Z,16.03
2022-11-13T03:00:33.405Z,16.27
2022-11-13T03:05:05.199Z,16.10
2022-11-13T03:08:38.156Z,15.60
2022-11-13T03:12:40.071Z,15.03
2022-11-13T03:16:41.186Z,24.37
2022-11-13T03:20:43.143Z,21.80
2022-11-13T03:24:44.169Z,22.80
2022-11-13T03:28:45.926Z,20.77
2022-11-13T03:32:47.162Z,20.97
2022-11-13T03:36:48.226Z,22.90
2022-11-13T03:40:49.981Z,18.67
2022-11-13T03:44:51.022Z,16.60
2022-11-13T03:48:52.200Z,15.90
2022-11-13T03:52:53.354Z,15.37
2022-11-13T03:56:54.644Z,15.27
2022-11-13T04:00:56.080Z,15.20
2022-11-13T04:04:57.153Z,16.33
2022-11-13T04:08:58.221Z,16.83
2022-11-13T04:12:59.437Z,19.27
2022-11-13T04:17:00.565Z,14.90
2022-11-13T04:21:03.775Z,15.77
2022-11-13T04:25:05.761Z,16.37
2022-11-13T04:29:06.755Z,15.07
2022-11-13T04:33:07.931Z,16.17
2022-11-13T04:37:09.092Z,16.07
2022-11-13T04:41:30.799Z,15.83
2022-11-13T04:45:32.007Z,16.10
2022-11-13T04:49:33.409Z,15.37
2022-11-13T04:53:34.603Z,15.77
2022-11-13T04:57:35.953Z,14.77
2022-11-13T05:01:37.288Z,14.00
2022-11-13T05:05:38.295Z,16.10
2022-11-13T05:09:39.269Z,15.27
2022-11-13T05:13:40.362Z,14.20
2022-11-13T05:17:41.385Z,14.20
2022-11-13T05:21:44.070Z,13.07
2022-11-13T05:25:45.238Z,13.20
2022-11-13T05:29:46.428Z,19.05
2022-11-13T05:33:48.697Z,15.07
2022-11-13T05:37:49.946Z,15.63
2022-11-13T05:41:51.125Z,13.33
2022-11-13T05:46:07.062Z,12.87
2022-11-13T05:50:09.143Z,13.70
2022-11-13T05:54:10.916Z,14.53
2022-11-13T05:58:12.282Z,15.30
2022-11-13T06:02:13.591Z,14.53
2022-11-13T06:06:17.060Z,14.97
2022-11-13T06:10:18.135Z,14.20
2022-11-13T06:14:19.257Z,14.13
2022-11-13T06:18:26.519Z,13.37
2022-11-13T06:22:26.626Z,11.87
2022-11-13T06:26:31.211Z,11.50
2022-11-13T06:30:32.429Z,13.23
2022-11-13T06:34:33.381Z,12.73
2022-11-13T06:38:37.411Z,14.40
2022-11-13T06:42:38.856Z,13.27
2022-11-13T06:46:39.817Z,12.07
2022-11-13T06:50:45.671Z,10.60
2022-11-13T06:54:44.054Z,12.17
2022-11-13T06:58:45.266Z,11.03
2022-11-13T07:02:49.618Z,12.13
2022-11-13T07:06:50.665Z,11.97
2022-11-13T07:10:55.685Z,12.83
2022-11-13T07:14:56.787Z,13.53
2022-11-13T07:18:57.730Z,12.60
2022-11-13T07:23:00.481Z,12.27
2022-11-13T07:27:01.438Z,13.73
2022-11-13T07:31:02.522Z,16.20
2022-11-13T07:35:04.336Z,17.53
2022-11-13T07:39:05.288Z,16.90
2022-11-13T07:43:06.483Z,17.27
2022-11-13T07:47:07.638Z,16.57
2022-11-13T07:51:08.615Z,15.53
2022-11-13T07:55:09.823Z,16.27
2022-11-13T07:59:11.013Z,15.73
2022-11-13T08:03:15.085Z,15.00
2022-11-13T08:07:16.501Z,12.87
2022-11-13T08:11:17.762Z,23.33
2022-11-13T08:15:18.744Z,27.10
2022-11-13T08:19:19.951Z,24.83
2022-11-13T08:23:21.423Z,23.00
2022-11-13T08:27:23.196Z,25.80
2022-11-13T08:31:24.316Z,25.10
2022-11-13T08:35:29.186Z,22.33
2022-11-13T08:39:28.286Z,22.27
2022-11-13T08:43:29.482Z,23.97
2022-11-13T08:47:30.521Z,22.73
2022-11-13T08:51:31.539Z,21.37
2022-11-13T08:55:33.453Z,21.47
2022-11-13T08:59:34.742Z,20.83
2022-11-13T09:03:36.358Z,19.43
2022-11-13T09:07:37.732Z,20.50
2022-11-13T09:11:38.914Z,21.20
2022-11-13T09:15:40.157Z,28.83
2022-11-13T09:19:41.277Z,25.67
2022-11-13T09:23:42.428Z,26.40
2022-11-13T09:27:43.571Z,29.87
2022-11-13T09:31:45.096Z,30.33
2022-11-13T09:35:46.238Z,31.30
2022-11-13T09:39:47.352Z,31.33
2022-11-13T09:43:56.591Z,25.80
2022-11-13T09:47:57.537Z,22.77
2022-11-13T09:52:06.362Z,20.23
2022-11-13T09:56:08.952Z,16.60
2022-11-13T10:00:18.253Z,15.90
2022-11-13T10:04:23.108Z,16.00
2022-11-13T10:08:30.781Z,16.50
2022-11-13T10:12:33.336Z,16.67
2022-11-13T10:16:40.877Z,16.23
2022-11-13T10:20:56.428Z,12.73
2022-11-13T10:25:01.265Z,7.40
2022-11-13T10:29:12.151Z,6.00
2022-11-13T10:33:19.253Z,5.70
2022-11-13T10:37:29.636Z,4.23
2022-11-13T10:41:30.906Z,4.50
2022-11-13T10:45:32.664Z,4.00
2022-11-13T10:49:33.664Z,3.03
2022-11-13T10:53:40.521Z,3.03
2022-11-13T10:57:43.110Z,3.80
2022-11-13T11:01:46.583Z,4.07
2022-11-13T11:05:59.435Z,2.90
2022-11-13T11:10:01.310Z,3.10
2022-11-13T11:14:18.508Z,2.77
2022-11-13T11:18:55.555Z,3.63
2022-11-13T11:23:24.683Z,3.00
2022-11-13T11:27:29.448Z,2.80
2022-11-13T11:31:44.009Z,2.30
2022-11-13T11:35:51.594Z,2.47
2022-11-13T11:40:11.209Z,2.07
2022-11-13T11:44:19.246Z,3.20
2022-11-13T11:48:24.050Z,2.60
2022-11-13T11:52:31.803Z,3.47
2022-11-13T11:56:54.877Z,3.70
2022-11-13T12:01:02.953Z,2.70
2022-11-13T12:05:24.589Z,2.93
2022-11-13T12:09:39.081Z,2.80
2022-11-13T12:13:56.240Z,3.03
2022-11-13T12:18:28.510Z,2.07
2022-11-13T12:22:41.540Z,2.73
2022-11-13T12:27:07.053Z,1.90
2022-11-13T12:31:17.703Z,2.20
2022-11-13T12:35:21.363Z,2.57
2022-11-13T12:39:57.659Z,1.73
2022-11-13T12:44:02.680Z,2.20
2022-11-13T12:48:18.237Z,1.90
2022-11-13T12:52:23.552Z,2.17
2022-11-13T12:56:28.373Z,2.93
2022-11-13T13:00:30.660Z,2.47
2022-11-13T13:04:52.467Z,3.40
2022-11-13T13:09:16.694Z,4.47
2022-11-13T13:13:24.812Z,3.27
2022-11-13T13:17:25.972Z,3.67
2022-11-13T13:21:27.090Z,3.07
2022-11-13T13:25:34.503Z,3.13
2022-11-13T13:29:39.297Z,3.07
2022-11-13T13:34:10.172Z,2.40
2022-11-13T13:38:33.334Z,2.63
2022-11-13T13:43:00.041Z,3.00
2022-11-13T13:47:05.157Z,3.10
2022-11-13T13:51:12.948Z,3.53
2022-11-13T13:55:30.020Z,3.30
2022-11-13T13:59:35.637Z,3.20
2022-11-13T14:03:36.530Z,3.57
2022-11-13T14:07:41.373Z,3.47
2022-11-13T14:11:42.424Z,3.83
2022-11-13T14:15:43.999Z,3.63
2022-11-13T14:19:54.123Z,3.77
2022-11-13T14:23:56.979Z,4.00
2022-11-13T14:27:58.119Z,4.13
2022-11-13T14:32:05.812Z,4.60
2022-11-13T14:36:07.811Z,4.23
2022-11-13T14:40:25.234Z,3.83
2022-11-13T14:44:32.145Z,3.87
2022-11-13T14:48:34.341Z,4.13
2022-11-13T14:52:35.483Z,4.37
2022-11-13T14:56:38.916Z,4.63
2022-11-13T15:00:40.351Z,4.70
2022-11-13T15:04:41.321Z,4.47
2022-11-13T15:08:44.468Z,3.97
2022-11-13T15:12:45.712Z,4.37
2022-11-13T15:16:49.256Z,4.10
2022-11-13T15:20:50.430Z,24.73
2022-11-13T15:24:51.444Z,12.77
2022-11-13T15:28:52.644Z,7.03
2022-11-13T15:32:54.243Z,8.43
2022-11-13T15:36:55.482Z,7.57
2022-11-13T15:40:56.954Z,7.63
2022-11-13T15:44:58.180Z,5.90
2022-11-13T15:48:59.378Z,6.60
2022-11-13T15:53:05.421Z,7.10
2022-11-13T15:57:07.409Z,9.97
2022-11-13T16:01:11.303Z,12.37
2022-11-13T16:05:12.538Z,8.48
2022-11-13T16:09:14.224Z,10.13
2022-11-13T16:13:15.333Z,14.13
2022-11-13T16:17:19.702Z,13.93
2022-11-13T16:21:21.809Z,11.93
2022-11-13T16:25:22.919Z,12.17
2022-11-13T16:29:24.676Z,11.47
2022-11-13T16:33:26.151Z,12.60
2022-11-13T16:37:27.676Z,23.60
2022-11-13T16:41:31.384Z,19.17
2022-11-13T16:45:32.632Z,19.83
2022-11-13T16:49:33.766Z,20.30
2022-11-13T16:53:34.935Z,20.23
2022-11-13T16:57:36.517Z,18.80
2022-11-13T17:01:38.050Z,14.33
2022-11-13T17:05:39.185Z,14.33
2022-11-13T17:09:42.423Z,28.47
2022-11-13T17:13:45.659Z,33.63
2022-11-13T17:17:47.299Z,36.27
2022-11-13T17:21:48.343Z,35.83
2022-11-13T17:25:49.472Z,42.83
2022-11-13T17:29:50.481Z,28.63
2022-11-13T17:33:53.307Z,29.07
2022-11-13T17:37:55.012Z,38.17
2022-11-13T17:41:55.944Z,41.00
2022-11-13T17:45:56.953Z,45.52
2022-11-13T17:50:02.466Z,41.43
2022-11-13T17:54:01.468Z,35.27
2022-11-13T17:58:03.142Z,31.20
2022-11-13T18:02:04.756Z,33.50
2022-11-13T18:06:09.097Z,34.03
2022-11-13T18:10:10.777Z,32.90
2022-11-13T18:14:12.601Z,42.37
2022-11-13T18:18:14.175Z,37.33
2022-11-13T18:22:16.074Z,37.10
2022-11-13T18:26:18.634Z,42.57
2022-11-13T18:30:20.526Z,49.13
2022-11-13T18:34:22.081Z,55.98
2022-11-13T18:38:23.157Z,42.73
2022-11-13T18:42:24.437Z,41.07
2022-11-13T18:46:25.550Z,31.80
2022-11-13T18:50:27.116Z,39.03
2022-11-13T18:54:28.404Z,42.73
2022-11-13T18:58:30.380Z,42.83
2022-11-13T19:02:31.432Z,40.20
2022-11-13T19:06:34.183Z,40.67
2022-11-13T19:10:35.401Z,40.33
2022-11-13T19:14:36.532Z,41.53
2022-11-13T19:18:39.003Z,41.10
2022-11-13T19:22:40.345Z,42.23
2022-11-13T19:26:42.743Z,38.93
2022-11-13T19:30:45.850Z,39.37
2022-11-13T19:34:47.040Z,38.83
2022-11-13T19:38:48.185Z,58.90
2022-11-13T19:42:49.252Z,48.97
2022-11-13T19:46:50.890Z,40.57
2022-11-13T19:50:53.106Z,50.07
2022-11-13T19:54:54.455Z,56.20
2022-11-13T19:58:57.892Z,57.53
2022-11-13T20:03:07.430Z,58.00
2022-11-13T20:07:08.651Z,50.50
2022-11-13T20:11:13.769Z,49.70
2022-11-13T20:15:16.247Z,46.43
2022-11-13T20:19:17.253Z,54.27
2022-11-13T20:23:18.694Z,57.00
2022-11-13T20:27:20.016Z,62.07
2022-11-13T20:31:24.793Z,67.13
2022-11-13T20:35:28.854Z,66.97
2022-11-13T20:39:31.677Z,59.60
2022-11-13T20:43:36.485Z,54.90
2022-11-13T20:47:38.659Z,56.23
2022-11-13T20:51:41.326Z,56.93
2022-11-13T20:55:45.618Z,53.07
2022-11-13T20:59:49.940Z,55.60
2022-11-13T21:03:53.511Z,47.80
2022-11-13T21:07:55.126Z,47.30
2022-11-13T21:12:00.639Z,41.40
2022-11-13T21:16:09.910Z,42.27
2022-11-13T21:20:13.025Z,37.03
2022-11-13T21:24:17.834Z,42.70
2022-11-13T21:28:23.762Z,42.00
2022-11-13T21:32:27.464Z,41.77
2022-11-13T21:36:32.896Z,34.63
2022-11-13T21:40:36.271Z,33.03
2022-11-13T21:44:42.914Z,34.60
2022-11-13T21:48:45.653Z,35.67
2022-11-13T21:52:48.809Z,34.23
2022-11-13T21:56:52.497Z,36.33
2022-11-13T22:00:56.055Z,35.40
2022-11-13T22:04:58.645Z,39.03
2022-11-13T22:09:03.167Z,34.23
2022-11-13T22:13:06.164Z,29.17
2022-11-13T22:17:10.057Z,27.20
2022-11-13T22:21:13.685Z,26.53
2022-11-13T22:25:17.325Z,25.03
2022-11-13T22:29:21.580Z,24.50
2022-11-13T22:33:29.759Z,27.77
2022-11-13T22:37:34.628Z,27.20
2022-11-13T22:41:37.955Z,45.37
2022-11-13T22:45:40.518Z,111.17
2022-11-13T22:49:43.316Z,79.23
2022-11-13T22:53:51.104Z,42.67
2022-11-13T22:57:53.732Z,26.87
2022-11-13T23:01:55.860Z,41.53
2022-11-13T23:05:57.303Z,42.87
2022-11-13T23:09:58.282Z,38.60
2022-11-13T23:14:02.174Z,34.20
2022-11-13T23:18:07.119Z,29.93
2022-11-13T23:22:06.597Z,21.63
2022-11-13T23:26:09.308Z,27.90
2022-11-13T23:30:11.623Z,32.00
2022-11-13T23:34:13.216Z,32.43
2022-11-13T23:38:14.428Z,29.67
2022-11-13T23:42:20.695Z,34.03
2022-11-13T23:46:18.575Z,30.87
2022-11-13T23:50:19.694Z,29.57
2022-11-13T23:54:21.321Z,24.87
2022-11-13T23:58:22.763Z,20.63
